createdAt,value
2022-10-08T00:01:09.616Z,100.00
2022-10-08T00:03:38.831Z,100.00
2022-10-08T00:06:08.924Z,100.00
2022-10-08T00:08:38.543Z,100.00
2022-10-08T00:11:08.189Z,100.00
2022-10-08T00:13:41.617Z,100.00
2022-10-08T00:16:10.074Z,100.00
2022-10-08T00:18:37.660Z,100.00
2022-10-08T00:21:07.073Z,100.00
2022-10-08T00:23:35.207Z,100.00
2022-10-08T00:26:07.092Z,100.00
2022-10-08T00:28:35.663Z,100.00
2022-10-08T00:31:08.225Z,100.00
2022-10-08T00:33:37.051Z,100.00
2022-10-08T00:36:05.847Z,100.00
2022-10-08T00:38:33.620Z,100.00
2022-10-08T00:41:01.593Z,100.00
2022-10-08T00:43:43.845Z,100.00
2022-10-08T00:46:25.968Z,100.00
2022-10-08T00:49:01.728Z,100.00
2022-10-08T00:51:30.076Z,100.00
2022-10-08T00:53:57.647Z,100.00
2022-10-08T00:56:26.178Z,100.00
2022-10-08T00:58:54.214Z,100.00
2022-10-08T01:01:23.153Z,100.00
2022-10-08T01:03:50.722Z,100.00
2022-10-08T01:06:27.468Z,100.00
2022-10-08T01:09:01.022Z,100.00
2022-10-08T01:11:42.767Z,100.00
2022-10-08T01:14:22.890Z,100.00
2022-10-08T01:16:58.220Z,100.00
2022-10-08T01:19:57.622Z,100.00
2022-10-08T01:22:38.810Z,100.00
2022-10-08T01:25:32.977Z,100.00
2022-10-08T01:28:06.497Z,100.00
2022-10-08T01:30:38.223Z,100.00
2022-10-08T01:33:12.280Z,100.00
2022-10-08T01:35:44.688Z,100.00
2022-10-08T01:38:16.944Z,100.00
2022-10-08T01:40:47.729Z,100.00
2022-10-08T01:43:21.696Z,100.00
2022-10-08T01:45:57.324Z,100.00
2022-10-08T01:48:29.649Z,100.00
2022-10-08T01:51:03.353Z,100.00
2022-10-08T01:53:35.607Z,100.00
2022-10-08T01:56:06.221Z,100.00
2022-10-08T01:58:40.051Z,100.00
2022-10-08T02:01:12.882Z,100.00
2022-10-08T02:04:01.031Z,100.00
2022-10-08T02:06:31.293Z,100.00
2022-10-08T02:08:58.800Z,100.00
2022-10-08T02:11:26.384Z,100.00
2022-10-08T02:13:55.321Z,100.00
2022-10-08T02:16:29.616Z,100.00
2022-10-08T02:19:08.057Z,100.00
2022-10-08T02:21:39.187Z,100.00
2022-10-08T02:24:13.294Z,100.00
2022-10-08T02:26:45.441Z,100.00
2022-10-08T02:29:20.410Z,100.00
2022-10-08T02:31:50.791Z,100.00
2022-10-08T02:34:23.450Z,100.00
2022-10-08T02:36:57.694Z,100.00
2022-10-08T02:39:28.335Z,100.00
2022-10-08T02:42:00.439Z,100.00
2022-10-08T02:44:34.005Z,100.00
2022-10-08T02:47:07.001Z,100.00
2022-10-08T02:49:38.683Z,100.00
2022-10-08T02:52:09.047Z,100.00
2022-10-08T02:54:39.744Z,100.00
2022-10-08T02:57:15.732Z,100.00
2022-10-08T02:59:45.599Z,100.00
2022-10-08T03:02:21.040Z,100.00
2022-10-08T03:04:52.397Z,100.00
2022-10-08T03:07:22.915Z,100.00
2022-10-08T03:09:53.035Z,100.00
2022-10-08T03:12:20.956Z,100.00
2022-10-08T03:14:52.209Z,100.00
2022-10-08T03:17:23.652Z,100.00
2022-10-08T03:19:51.769Z,100.00
2022-10-08T03:22:19.408Z,100.00
2022-10-08T03:24:46.913Z,100.00
2022-10-08T03:27:14.594Z,100.00
2022-10-08T03:29:42.130Z,100.00
2022-10-08T03:32:10.997Z,100.00
2022-10-08T03:34:38.521Z,100.00
2022-10-08T03:37:06.068Z,100.00
2022-10-08T03:39:33.585Z,100.00
2022-10-08T03:42:01.087Z,100.00
2022-10-08T03:44:28.616Z,100.00
2022-10-08T03:46:56.127Z,100.00
2022-10-08T03:49:25.330Z,100.00
2022-10-08T03:51:52.855Z,100.00
2022-10-08T03:54:20.392Z,100.00
2022-10-08T03:56:48.108Z,100.00
2022-10-08T03:59:15.786Z,100.00
2022-10-08T04:01:43.353Z,100.00
2022-10-08T04:04:10.996Z,100.00
2022-10-08T04:06:39.864Z,100.00
2022-10-08T04:09:07.378Z,100.00
2022-10-08T04:11:34.913Z,100.00
2022-10-08T04:14:02.495Z,100.00
2022-10-08T04:16:30.008Z,100.00
2022-10-08T04:18:57.552Z,100.00
2022-10-08T04:21:25.089Z,100.00
2022-10-08T04:23:53.920Z,100.00
2022-10-08T04:26:21.410Z,100.00
2022-10-08T04:28:49.047Z,100.00
2022-10-08T04:31:18.869Z,100.00
2022-10-08T04:33:47.650Z,100.00
2022-10-08T04:36:16.740Z,100.00
2022-10-08T04:38:44.847Z,100.00
2022-10-08T04:41:15.080Z,100.00
2022-10-08T04:43:44.019Z,100.00
2022-10-08T04:46:13.226Z,100.00
2022-10-08T04:48:41.603Z,100.00
2022-10-08T04:51:10.822Z,100.00
2022-10-08T04:53:39.324Z,100.00
2022-10-08T04:56:14.252Z,100.00
2022-10-08T04:58:42.434Z,100.00
2022-10-08T05:01:12.831Z,100.00
2022-10-08T05:03:41.809Z,100.00
2022-10-08T05:06:10.149Z,100.00
2022-10-08T05:08:38.901Z,100.00
2022-10-08T05:11:06.523Z,100.00
2022-10-08T05:13:36.075Z,100.00
2022-10-08T05:16:05.744Z,100.00
2022-10-08T05:18:33.691Z,100.00
2022-10-08T05:21:04.152Z,100.00
2022-10-08T05:23:33.063Z,100.00
2022-10-08T05:26:02.234Z,100.00
2022-10-08T05:28:30.879Z,100.00
2022-10-08T05:31:02.977Z,100.00
2022-10-08T05:33:30.527Z,100.00
2022-10-08T05:35:58.047Z,100.00
2022-10-08T05:38:25.577Z,100.00
2022-10-08T05:40:53.075Z,100.00
2022-10-08T05:43:20.581Z,100.00
2022-10-08T05:45:52.063Z,100.00
2022-10-08T05:48:20.911Z,100.00
2022-10-08T05:50:48.423Z,100.00
2022-10-08T05:53:15.933Z,100.00
2022-10-08T05:55:43.447Z,100.00
2022-10-08T05:58:10.930Z,100.00
2022-10-08T06:00:38.503Z,100.00
2022-10-08T06:03:06.118Z,100.00
2022-10-08T06:05:35.066Z,100.00
2022-10-08T06:08:02.572Z,100.00
2022-10-08T06:10:31.934Z,100.00
2022-10-08T06:12:59.436Z,100.00
2022-10-08T06:15:26.948Z,100.00
2022-10-08T06:17:54.449Z,100.00
2022-10-08T06:20:21.950Z,100.00
2022-10-08T06:22:50.955Z,100.00
2022-10-08T06:25:18.536Z,100.00
2022-10-08T06:27:46.031Z,100.00
2022-10-08T06:30:14.087Z,100.00
2022-10-08T06:32:41.609Z,100.00
2022-10-08T06:35:09.446Z,100.00
2022-10-08T06:37:36.943Z,100.00
2022-10-08T06:40:06.247Z,100.00
2022-10-08T06:42:33.769Z,100.00
2022-10-08T06:45:02.350Z,100.00
2022-10-08T06:47:30.284Z,100.00
2022-10-08T06:49:57.805Z,100.00
2022-10-08T06:52:25.350Z,100.00
2022-10-08T06:54:52.849Z,100.00
2022-10-08T06:57:21.710Z,100.00
2022-10-08T06:59:49.383Z,100.00
2022-10-08T07:02:16.895Z,100.00
2022-10-08T07:04:44.512Z,100.00
2022-10-08T07:07:12.009Z,100.00
2022-10-08T07:09:39.540Z,100.00
2022-10-08T07:12:07.053Z,100.00
2022-10-08T07:14:35.916Z,100.00
2022-10-08T07:17:03.415Z,100.00
2022-10-08T07:19:30.928Z,100.00
2022-10-08T07:22:01.342Z,100.00
2022-10-08T07:24:29.201Z,100.00
2022-10-08T07:26:56.865Z,100.00
2022-10-08T07:29:26.190Z,100.00
2022-10-08T07:31:55.139Z,100.00
2022-10-08T07:34:22.785Z,100.00
2022-10-08T07:36:50.280Z,100.00
2022-10-08T07:39:19.787Z,100.00
2022-10-08T07:41:48.311Z,100.00
2022-10-08T07:44:16.676Z,100.00
2022-10-08T07:46:46.115Z,100.00
2022-10-08T07:49:16.096Z,100.00
2022-10-08T07:51:44.260Z,100.00
2022-10-08T07:54:15.557Z,100.00
2022-10-08T07:56:43.229Z,100.00
2022-10-08T07:59:14.833Z,100.00
2022-10-08T08:01:43.434Z,100.00
2022-10-08T08:04:12.223Z,100.00
2022-10-08T08:06:43.276Z,100.00
2022-10-08T08:09:11.976Z,100.00
2022-10-08T08:11:40.226Z,100.00
2022-10-08T08:14:08.108Z,100.00
2022-10-08T08:16:35.982Z,100.00
2022-10-08T08:19:04.217Z,100.00
2022-10-08T08:21:33.308Z,100.00
2022-10-08T08:24:05.890Z,100.00
2022-10-08T08:26:36.780Z,100.00
2022-10-08T08:29:06.973Z,100.00
2022-10-08T08:31:36.084Z,100.00
2022-10-08T08:34:05.563Z,100.00
2022-10-08T08:36:35.794Z,100.00
2022-10-08T08:39:05.848Z,100.00
2022-10-08T08:41:52.957Z,100.00
2022-10-08T08:44:23.264Z,100.00
2022-10-08T08:46:57.418Z,100.00
2022-10-08T08:49:29.344Z,100.00
2022-10-08T08:51:59.233Z,100.00
2022-10-08T08:54:28.382Z,100.00
2022-10-08T08:56:56.320Z,100.00
2022-10-08T08:59:32.499Z,100.00
2022-10-08T09:02:04.661Z,100.00
2022-10-08T09:04:45.053Z,100.00
2022-10-08T09:07:18.019Z,100.00
2022-10-08T09:09:50.230Z,100.00
2022-10-08T09:12:21.221Z,100.00
2022-10-08T09:14:52.977Z,100.00
2022-10-08T09:17:23.361Z,100.00
2022-10-08T09:19:51.398Z,100.00
2022-10-08T09:22:22.933Z,100.00
2022-10-08T09:24:55.709Z,100.00
2022-10-08T09:27:23.310Z,100.00
2022-10-08T09:29:50.843Z,99.79
2022-10-08T09:32:21.120Z,93.96
2022-10-08T09:34:49.213Z,96.55
2022-10-08T09:37:22.153Z,98.37
2022-10-08T09:40:21.214Z,100.00
2022-10-08T09:43:11.859Z,100.00
2022-10-08T09:45:43.799Z,100.00
2022-10-08T09:48:22.811Z,100.00
2022-10-08T09:50:54.978Z,100.00
2022-10-08T09:53:25.690Z,100.00
2022-10-08T09:55:58.232Z,100.00
2022-10-08T09:58:25.960Z,100.00
2022-10-08T10:01:03.741Z,100.00
2022-10-08T10:03:32.623Z,100.00
2022-10-08T10:06:01.491Z,100.00
2022-10-08T10:08:45.849Z,100.00
2022-10-08T10:11:21.387Z,100.00
2022-10-08T10:13:50.907Z,100.00
2022-10-08T10:16:23.572Z,100.00
2022-10-08T10:18:58.088Z,100.00
2022-10-08T10:21:35.440Z,100.00
2022-10-08T10:24:23.749Z,100.00
2022-10-08T10:26:56.834Z,100.00
2022-10-08T10:29:30.183Z,100.00
2022-10-08T10:32:03.623Z,100.00
2022-10-08T10:34:37.043Z,88.89
2022-10-08T10:37:11.439Z,92.04
2022-10-08T10:39:44.434Z,100.00
2022-10-08T10:42:18.467Z,100.00
2022-10-08T10:44:53.291Z,100.00
2022-10-08T10:47:27.113Z,100.00
2022-10-08T10:49:57.917Z,100.00
2022-10-08T10:52:37.334Z,100.00
2022-10-08T10:55:32.571Z,100.00
2022-10-08T10:58:18.608Z,91.35
2022-10-08T11:00:56.227Z,87.68
2022-10-08T11:03:31.944Z,98.40
2022-10-08T11:06:27.925Z,100.00
2022-10-08T11:09:00.542Z,94.44
2022-10-08T11:11:37.270Z,92.99
2022-10-08T11:14:23.271Z,95.11
2022-10-08T11:17:03.759Z,98.25
2022-10-08T11:19:40.099Z,97.04
2022-10-08T11:22:18.211Z,93.98
2022-10-08T11:25:01.944Z,93.56
2022-10-08T11:27:40.092Z,100.00
2022-10-08T11:30:14.150Z,92.19
2022-10-08T11:32:43.752Z,88.76
2022-10-08T11:35:24.644Z,84.48
2022-10-08T11:38:02.691Z,90.92
2022-10-08T11:40:35.921Z,93.03
2022-10-08T11:43:08.327Z,87.60
2022-10-08T11:45:39.879Z,90.83
2022-10-08T11:48:32.757Z,95.75
2022-10-08T11:51:31.172Z,95.85
2022-10-08T11:54:05.808Z,96.15
2022-10-08T11:56:35.841Z,93.01
2022-10-08T11:59:11.057Z,100.00
2022-10-08T12:01:53.267Z,93.66
2022-10-08T12:04:23.785Z,98.22
2022-10-08T12:07:03.844Z,97.62
2022-10-08T12:10:22.581Z,91.71
2022-10-08T12:13:28.683Z,91.49
2022-10-08T12:16:06.686Z,96.25
2022-10-08T12:18:54.103Z,95.04
2022-10-08T12:21:55.160Z,92.34
2022-10-08T12:24:58.249Z,85.42
2022-10-08T12:27:39.871Z,79.96
2022-10-08T12:30:10.542Z,84.34
2022-10-08T12:32:57.892Z,83.46
2022-10-08T12:35:32.790Z,81.43
2022-10-08T12:38:22.746Z,86.32
2022-10-08T12:41:00.196Z,85.46
2022-10-08T12:43:37.856Z,85.62
2022-10-08T12:46:18.482Z,90.65
2022-10-08T12:48:52.088Z,84.55
2022-10-08T12:51:27.352Z,85.31
2022-10-08T12:53:55.056Z,85.06
2022-10-08T12:56:26.195Z,85.50
2022-10-08T12:58:56.807Z,81.25
2022-10-08T13:01:26.071Z,81.76
2022-10-08T13:04:10.693Z,80.24
2022-10-08T13:06:39.610Z,83.19
2022-10-08T13:09:26.619Z,83.20
2022-10-08T13:11:58.297Z,85.88
2022-10-08T13:14:30.753Z,86.93
2022-10-08T13:16:58.795Z,80.17
2022-10-08T13:19:31.892Z,84.33
2022-10-08T13:22:02.933Z,85.55
2022-10-08T13:24:33.995Z,85.24
2022-10-08T13:27:01.632Z,85.51
2022-10-08T13:29:32.473Z,87.88
2022-10-08T13:32:02.126Z,88.90
2022-10-08T13:34:32.059Z,89.93
2022-10-08T13:37:03.588Z,87.36
2022-10-08T13:39:34.590Z,85.34
2022-10-08T13:42:04.867Z,87.69
2022-10-08T13:44:34.488Z,82.16
2022-10-08T13:47:03.858Z,77.10
2022-10-08T13:49:33.764Z,75.78
2022-10-08T13:52:02.953Z,71.07
2022-10-08T13:54:33.265Z,75.22
2022-10-08T13:57:01.215Z,75.44
2022-10-08T13:59:30.900Z,74.43
2022-10-08T14:01:58.716Z,78.38
2022-10-08T14:04:26.924Z,76.50
2022-10-08T14:06:57.264Z,74.82
2022-10-08T14:09:28.927Z,76.53
2022-10-08T14:11:59.265Z,73.24
2022-10-08T14:14:28.435Z,70.99
2022-10-08T14:16:55.963Z,72.65
2022-10-08T14:19:23.500Z,70.51
2022-10-08T14:21:55.069Z,70.06
2022-10-08T14:24:22.580Z,69.47
2022-10-08T14:26:51.427Z,69.91
2022-10-08T14:29:19.061Z,67.57
2022-10-08T14:31:46.641Z,67.48
2022-10-08T14:34:14.238Z,72.24
2022-10-08T14:36:42.790Z,73.10
2022-10-08T14:39:11.011Z,74.37
2022-10-08T14:41:40.683Z,71.09
2022-10-08T14:44:09.589Z,68.83
2022-10-08T14:46:37.103Z,68.42
2022-10-08T14:49:05.284Z,66.98
2022-10-08T14:51:38.402Z,70.21
2022-10-08T14:54:06.980Z,68.94
2022-10-08T14:56:34.662Z,72.31
2022-10-08T14:59:02.204Z,70.98
2022-10-08T15:01:31.410Z,72.75
2022-10-08T15:03:59.038Z,77.07
2022-10-08T15:06:26.583Z,76.83
2022-10-08T15:08:54.183Z,77.17
2022-10-08T15:11:21.717Z,78.07
2022-10-08T15:13:49.248Z,77.12
2022-10-08T15:16:16.854Z,76.82
2022-10-08T15:18:45.779Z,76.19
2022-10-08T15:21:13.277Z,78.93
2022-10-08T15:23:40.763Z,77.92
2022-10-08T15:26:14.614Z,78.33
2022-10-08T15:28:43.130Z,77.18
2022-10-08T15:31:13.752Z,73.38
2022-10-08T15:33:42.611Z,77.70
2022-10-08T15:36:20.173Z,73.38
2022-10-08T15:38:49.102Z,72.62
2022-10-08T15:41:17.423Z,75.47
2022-10-08T15:43:45.503Z,73.81
2022-10-08T15:46:15.743Z,73.08
2022-10-08T15:48:43.455Z,73.31
2022-10-08T15:51:11.035Z,72.57
2022-10-08T15:53:40.141Z,72.02
2022-10-08T15:56:07.684Z,72.47
2022-10-08T15:58:49.944Z,73.06
2022-10-08T16:01:19.903Z,72.12
2022-10-08T16:03:49.129Z,69.37
2022-10-08T16:06:18.613Z,70.88
2022-10-08T16:08:47.780Z,69.42
2022-10-08T16:11:18.393Z,65.92
2022-10-08T16:13:50.177Z,64.70
2022-10-08T16:16:17.896Z,63.69
2022-10-08T16:18:46.919Z,63.34
2022-10-08T16:21:14.957Z,63.55
2022-10-08T16:23:42.504Z,62.83
2022-10-08T16:26:13.757Z,65.95
2022-10-08T16:28:42.056Z,72.43
2022-10-08T16:31:11.321Z,72.26
2022-10-08T16:33:39.259Z,71.84
2022-10-08T16:36:08.894Z,76.37
2022-10-08T16:38:37.871Z,84.38
2022-10-08T16:41:15.136Z,82.93
2022-10-08T16:43:46.041Z,79.03
2022-10-08T16:46:15.413Z,83.54
2022-10-08T16:48:43.608Z,87.95
2022-10-08T16:51:12.043Z,90.35
2022-10-08T16:53:40.303Z,92.38
2022-10-08T16:56:07.857Z,91.59
2022-10-08T16:58:36.708Z,93.80
2022-10-08T17:01:08.715Z,100.00
2022-10-08T17:03:36.664Z,98.36
2022-10-08T17:06:04.903Z,98.53
2022-10-08T17:08:32.425Z,100.00
2022-10-08T17:11:04.676Z,100.00
2022-10-08T17:13:32.394Z,100.00
2022-10-08T17:16:02.831Z,100.00
2022-10-08T17:18:32.225Z,100.00
2022-10-08T17:21:03.105Z,100.00
2022-10-08T17:23:35.975Z,100.00
2022-10-08T17:26:06.336Z,100.00
2022-10-08T17:28:36.327Z,100.00
2022-10-08T17:31:07.229Z,100.00
2022-10-08T17:33:36.297Z,100.00
2022-10-08T17:36:06.736Z,100.00
2022-10-08T17:38:35.054Z,100.00
2022-10-08T17:41:09.634Z,100.00
2022-10-08T17:43:37.133Z,100.00
2022-10-08T17:46:10.403Z,100.00
2022-10-08T17:48:38.259Z,100.00
2022-10-08T17:51:06.995Z,100.00
2022-10-08T17:53:34.956Z,100.00
2022-10-08T17:56:04.801Z,100.00
2022-10-08T17:58:32.403Z,100.00
2022-10-08T18:01:08.807Z,100.00
2022-10-08T18:03:38.829Z,100.00
2022-10-08T18:06:07.341Z,100.00
2022-10-08T18:08:35.044Z,100.00
2022-10-08T18:11:03.503Z,100.00
2022-10-08T18:13:31.377Z,100.00
2022-10-08T18:16:03.456Z,100.00
2022-10-08T18:18:31.107Z,100.00
2022-10-08T18:21:01.608Z,100.00
2022-10-08T18:23:30.172Z,100.00
2022-10-08T18:26:07.930Z,100.00
2022-10-08T18:28:36.073Z,100.00
2022-10-08T18:31:05.091Z,100.00
2022-10-08T18:33:32.984Z,100.00
2022-10-08T18:36:09.880Z,100.00
2022-10-08T18:38:37.428Z,100.00
2022-10-08T18:41:15.321Z,100.00
2022-10-08T18:43:43.208Z,100.00
2022-10-08T18:46:11.167Z,100.00
2022-10-08T18:48:39.100Z,100.00
2022-10-08T18:51:10.064Z,100.00
2022-10-08T18:53:39.379Z,100.00
2022-10-08T18:56:10.283Z,100.00
2022-10-08T18:58:38.066Z,100.00
2022-10-08T19:01:07.005Z,100.00
2022-10-08T19:03:34.591Z,100.00
2022-10-08T19:06:02.108Z,100.00
2022-10-08T19:08:31.168Z,100.00
2022-10-08T19:10:58.682Z,100.00
2022-10-08T19:13:26.184Z,100.00
2022-10-08T19:15:53.748Z,100.00
2022-10-08T19:18:21.281Z,100.00
2022-10-08T19:20:48.787Z,100.00
2022-10-08T19:23:16.304Z,100.00
2022-10-08T19:25:45.166Z,100.00
2022-10-08T19:28:12.690Z,100.00
2022-10-08T19:30:40.201Z,100.00
2022-10-08T19:33:07.699Z,100.00
2022-10-08T19:35:35.245Z,100.00
2022-10-08T19:38:02.788Z,100.00
2022-10-08T19:40:30.309Z,100.00
2022-10-08T19:42:59.158Z,100.00
2022-10-08T19:45:26.686Z,100.00
2022-10-08T19:47:54.176Z,100.00
2022-10-08T19:50:21.718Z,100.00
2022-10-08T19:52:51.867Z,100.00
2022-10-08T19:55:19.639Z,100.00
2022-10-08T19:57:47.149Z,100.00
2022-10-08T20:00:16.780Z,100.00
2022-10-08T20:02:44.311Z,100.00
2022-10-08T20:05:11.825Z,100.00
2022-10-08T20:07:39.836Z,100.00
2022-10-08T20:10:08.265Z,100.00
2022-10-08T20:12:35.768Z,100.00
2022-10-08T20:15:03.307Z,100.00
2022-10-08T20:17:32.183Z,100.00
2022-10-08T20:20:20.571Z,100.00
2022-10-08T20:22:47.538Z,100.00
2022-10-08T20:25:18.997Z,100.00
2022-10-08T20:27:46.506Z,100.00
2022-10-08T20:30:14.972Z,100.00
2022-10-08T20:32:43.827Z,100.00
2022-10-08T20:35:11.319Z,100.00
2022-10-08T20:37:38.852Z,100.00
2022-10-08T20:40:07.299Z,100.00
2022-10-08T20:42:34.816Z,100.00
2022-10-08T20:45:02.444Z,100.00
2022-10-08T20:47:29.953Z,100.00
2022-10-08T20:49:58.806Z,100.00
2022-10-08T20:52:26.329Z,100.00
2022-10-08T20:54:53.841Z,100.00
2022-10-08T20:57:21.346Z,100.00
2022-10-08T20:59:48.880Z,100.00
2022-10-08T21:02:19.604Z,100.00
2022-10-08T21:04:47.551Z,100.00
2022-10-08T21:07:16.388Z,100.00
2022-10-08T21:09:43.944Z,100.00
2022-10-08T21:12:11.453Z,100.00
2022-10-08T21:14:38.989Z,100.00
2022-10-08T21:17:06.499Z,100.00
2022-10-08T21:19:34.002Z,100.00
2022-10-08T21:22:01.532Z,100.00
2022-10-08T21:24:30.441Z,100.00
2022-10-08T21:26:58.053Z,100.00
2022-10-08T21:29:25.543Z,100.00
2022-10-08T21:31:53.121Z,100.00
2022-10-08T21:34:20.933Z,100.00
2022-10-08T21:36:49.972Z,100.00
2022-10-08T21:39:18.253Z,100.00
2022-10-08T21:41:47.389Z,100.00
2022-10-08T21:44:15.754Z,100.00
2022-10-08T21:46:43.327Z,100.00
2022-10-08T21:49:13.912Z,100.00
2022-10-08T21:51:41.628Z,100.00
2022-10-08T21:54:11.102Z,100.00
2022-10-08T21:56:41.193Z,100.00
2022-10-08T21:59:13.367Z,100.00
2022-10-08T22:01:42.687Z,100.00
2022-10-08T22:04:12.174Z,100.00
2022-10-08T22:06:41.760Z,100.00
2022-10-08T22:09:11.597Z,100.00
2022-10-08T22:11:39.469Z,100.00
2022-10-08T22:14:07.261Z,100.00
2022-10-08T22:16:36.306Z,100.00
2022-10-08T22:19:04.406Z,100.00
2022-10-08T22:21:32.355Z,100.00
2022-10-08T22:23:59.984Z,100.00
2022-10-08T22:26:30.118Z,100.00
2022-10-08T22:28:58.564Z,100.00
2022-10-08T22:31:27.021Z,100.00
2022-10-08T22:33:56.458Z,100.00
2022-10-08T22:36:26.266Z,100.00
2022-10-08T22:38:54.441Z,100.00
2022-10-08T22:41:23.571Z,100.00
2022-10-08T22:43:51.617Z,100.00
2022-10-08T22:46:21.905Z,100.00
2022-10-08T22:48:49.783Z,100.00
2022-10-08T22:51:20.148Z,100.00
2022-10-08T22:53:47.968Z,100.00
2022-10-08T22:56:18.601Z,100.00
2022-10-08T22:58:46.660Z,100.00
2022-10-08T23:01:15.672Z,100.00
2022-10-08T23:03:43.494Z,100.00
2022-10-08T23:06:15.474Z,100.00
2022-10-08T23:08:45.964Z,100.00
2022-10-08T23:11:14.112Z,100.00
2022-10-08T23:13:45.386Z,100.00
2022-10-08T23:16:14.970Z,100.00
2022-10-08T23:18:45.744Z,100.00
2022-10-08T23:21:15.793Z,100.00
2022-10-08T23:23:45.883Z,100.00
2022-10-08T23:26:14.434Z,100.00
2022-10-08T23:28:42.789Z,100.00
2022-10-08T23:31:12.613Z,100.00
2022-10-08T23:33:42.085Z,100.00
2022-10-08T23:36:10.656Z,100.00
2022-10-08T23:38:38.474Z,100.00
2022-10-08T23:41:09.241Z,100.00
2022-10-08T23:43:38.267Z,100.00
2022-10-08T23:46:07.628Z,100.00
2022-10-08T23:48:35.619Z,100.00
2022-10-08T23:51:04.292Z,100.00
2022-10-08T23:53:32.451Z,100.00
2022-10-08T23:56:00.545Z,100.00
2022-10-08T23:58:29.438Z,100.00
